Time;durP1;ratioP1;P1;durP2;ratioP2;P2;SDS_P1;SDS_P2;PMS_P1;PMS_P2;Temp;Humidity;BMP_temperature;BMP_pressure;BME280_temperature;BME280_humidity;BME280_pressure;Samples;Min_cycle;Max_cycle;Signal;HPM_P1;HPM_P2
2023/09/06 00:00:32;;;;;;;3.80;2.90;;;20.90;99.90;;;;;;5032830;28;20658;-87
2023/09/06 00:02:59;;;;;;;3.70;3.00;;;20.90;99.90;;;;;;5032729;28;20214;-86
2023/09/06 00:05:25;;;;;;;2.87;2.40;;;20.90;99.90;;;;;;5031695;28;20443;-85
2023/09/06 00:07:51;;;;;;;3.77;3.10;;;20.90;99.90;;;;;;5047784;28;20524;-87
2023/09/06 00:10:17;;;;;;;4.97;2.90;;;20.80;99.90;;;;;;5057417;28;20453;-86
2023/09/06 00:12:45;;;;;;;5.00;2.97;;;20.80;99.90;;;;;;5031570;28;20194;-86
2023/09/06 00:15:10;;;;;;;4.20;2.77;;;20.70;99.90;;;;;;5032543;28;21027;-86
2023/09/06 00:17:37;;;;;;;4.23;3.30;;;20.70;99.90;;;;;;5047911;28;20526;-86
2023/09/06 00:20:20;;;;;;;5.03;2.90;;;20.70;99.90;;;;;;5031613;28;20449;-86
2023/09/06 00:22:52;;;;;;;4.33;3.13;;;20.60;99.90;;;;;;5028591;28;20972;-86
2023/09/06 00:25:18;;;;;;;5.40;3.23;;;20.50;1.00;;;;;;5036198;28;20532;-86
2023/09/06 00:27:44;;;;;;;6.27;3.37;;;20.40;1.00;;;;;;5031661;28;20509;-86
2023/09/06 00:30:09;;;;;;;3.90;3.30;;;20.30;1.00;;;;;;5032515;28;20221;-86
2023/09/06 00:32:35;;;;;;;3.60;2.90;;;20.20;1.00;;;;;;5032670;28;20608;-86
2023/09/06 00:35:00;;;;;;;7.23;3.50;;;20.20;6.40;;;;;;5032820;28;20186;-86
2023/09/06 00:37:35;;;;;;;7.87;3.43;;;20.20;12.30;;;;;;5032199;28;20183;-85
2023/09/06 00:40:00;;;;;;;4.90;3.43;;;20.20;1.00;;;;;;5022783;28;20679;-86
2023/09/06 00:42:30;;;;;;;3.33;2.97;;;20.20;2.40;;;;;;5031009;28;20442;-85
2023/09/06 00:44:55;;;;;;;4.10;3.30;;;20.10;1.00;;;;;;5031835;28;20206;-84
2023/09/06 00:47:21;;;;;;;8.00;3.10;;;20.00;99.90;;;;;;5032167;28;20425;-86
2023/09/06 00:49:47;;;;;;;5.20;3.43;;;20.00;99.90;;;;;;5031311;28;20211;-86
2023/09/06 00:52:16;;;;;;;7.97;3.07;;;20.00;99.90;;;;;;5032351;28;20264;-85
2023/09/06 00:54:41;;;;;;;3.80;3.10;;;19.90;99.90;;;;;;5032104;28;20195;-85
2023/09/06 00:57:07;;;;;;;4.13;2.90;;;19.90;99.90;;;;;;5032148;28;20445;-86
2023/09/06 00:59:33;;;;;;;11.70;3.63;;;19.90;99.90;;;;;;5032404;28;20213;-86
2023/09/06 01:01:59;;;;;;;8.97;3.97;;;19.90;99.90;;;;;;5038705;28;20186;-84
2023/09/06 01:04:25;;;;;;;5.00;3.23;;;19.90;99.90;;;;;;5031270;28;20542;-86
2023/09/06 01:06:55;;;;;;;3.80;2.73;;;19.90;99.90;;;;;;5032281;28;20276;-86
2023/09/06 01:09:21;;;;;;;5.10;2.77;;;20.00;99.90;;;;;;5035728;28;20626;-86
2023/09/06 01:11:47;;;;;;;5.00;2.87;;;20.00;29.50;;;;;;5030811;28;20516;-86
2023/09/06 01:14:12;;;;;;;7.60;3.03;;;20.00;26.80;;;;;;5029342;28;20530;-85
2023/09/06 01:16:48;;;;;;;7.83;2.70;;;20.00;38.00;;;;;;5029358;28;20183;-86
2023/09/06 01:19:15;;;;;;;4.27;3.23;;;20.00;17.20;;;;;;5031659;28;20250;-85
2023/09/06 01:22:20;;;;;;;4.83;3.43;;;20.00;1.00;;;;;;5030065;28;20500;-85
2023/09/06 01:24:47;;;;;;;4.10;3.30;;;20.00;1.00;;;;;;5041589;28;20826;-86
2023/09/06 01:27:12;;;;;;;6.50;3.30;;;20.00;1.00;;;;;;5045306;28;20943;-86
2023/09/06 01:29:38;;;;;;;5.43;3.33;;;20.00;1.00;;;;;;5052426;28;20642;-86
2023/09/06 01:32:05;;;;;;;5.10;3.40;;;19.90;1.00;;;;;;5028138;28;20182;-86
2023/09/06 01:34:31;;;;;;;3.43;3.13;;;19.90;1.00;;;;;;5029341;28;20218;-86
2023/09/06 01:36:56;;;;;;;6.13;3.40;;;19.90;1.00;;;;;;5046407;28;21036;-86
2023/09/06 01:39:22;;;;;;;4.67;3.20;;;19.90;1.00;;;;;;5028948;28;20982;-85
2023/09/06 01:41:48;;;;;;;5.13;3.00;;;19.80;1.00;;;;;;5031382;28;20201;-86
2023/09/06 01:44:15;;;;;;;7.93;3.40;;;19.80;1.00;;;;;;5031152;28;20238;-86
2023/09/06 01:46:41;;;;;;;7.83;3.20;;;19.70;1.00;;;;;;5030586;28;20254;-86
2023/09/06 01:49:08;;;;;;;4.20;3.33;;;19.70;60.30;;;;;;5027056;28;20841;-85
2023/09/06 01:51:34;;;;;;;4.50;3.20;;;19.60;99.90;;;;;;5031196;28;21052;-86
2023/09/06 01:54:01;;;;;;;3.70;3.33;;;19.60;99.90;;;;;;5032697;28;20437;-84
2023/09/06 01:56:27;;;;;;;5.70;3.43;;;19.50;99.90;;;;;;5036000;28;21106;-87
2023/09/06 01:58:53;;;;;;;4.27;3.20;;;19.50;99.90;;;;;;5048943;28;20493;-86
2023/09/06 02:01:19;;;;;;;10.40;3.77;;;19.50;99.90;;;;;;5046206;28;20182;-86
2023/09/06 02:03:45;;;;;;;4.33;3.50;;;19.50;99.90;;;;;;5027248;28;20456;-86
2023/09/06 02:06:10;;;;;;;4.33;3.13;;;19.50;99.90;;;;;;5030380;28;20269;-86
2023/09/06 02:08:36;;;;;;;7.00;3.47;;;19.50;99.90;;;;;;5028961;28;20221;-86
2023/09/06 02:11:01;;;;;;;7.73;2.90;;;19.50;99.90;;;;;;5045006;28;20656;-86
2023/09/06 02:13:27;;;;;;;4.00;3.70;;;19.50;99.90;;;;;;5030969;28;20195;-85
2023/09/06 02:15:52;;;;;;;4.67;3.30;;;19.40;1.00;;;;;;5031617;28;20625;-86
2023/09/06 02:18:18;;;;;;;7.47;3.13;;;19.40;1.00;;;;;;5030649;28;20252;-86
2023/09/06 02:20:45;;;;;;;4.87;3.47;;;19.30;99.90;;;;;;5027864;28;20281;-86
2023/09/06 02:23:10;;;;;;;9.30;3.43;;;19.20;99.90;;;;;;5045748;28;20229;-86
2023/09/06 02:25:36;;;;;;;5.23;4.10;;;19.10;99.90;;;;;;5031212;28;20489;-86
2023/09/06 02:28:05;;;;;;;5.30;3.90;;;19.10;1.00;;;;;;5045984;28;20189;-84
2023/09/06 02:30:37;;;;;;;14.20;3.83;;;19.00;1.00;;;;;;5025676;28;20645;-86
2023/09/06 02:33:04;;;;;;;4.30;3.90;;;19.00;1.00;;;;;;5030079;28;20429;-85
2023/09/06 02:35:30;;;;;;;4.93;3.70;;;19.00;99.90;;;;;;5045724;28;20440;-86
2023/09/06 02:37:56;;;;;;;5.60;3.70;;;19.00;99.90;;;;;;5028888;28;20528;-85
2023/09/06 02:40:21;;;;;;;5.27;4.10;;;19.00;99.90;;;;;;5028568;28;20898;-86
2023/09/06 02:42:51;;;;;;;4.70;4.13;;;18.90;1.00;;;;;;5029137;28;20183;-85
2023/09/06 02:45:17;;;;;;;8.77;4.43;;;18.90;99.90;;;;;;5029288;28;20186;-83
2023/09/06 02:47:48;;;;;;;5.70;3.40;;;18.80;99.90;;;;;;5030036;28;20801;-86
2023/09/06 02:50:16;;;;;;;4.40;3.57;;;18.80;99.90;;;;;;5029256;28;20460;-86
2023/09/06 02:52:44;;;;;;;5.90;4.17;;;18.80;99.90;;;;;;5030479;28;20425;-84
2023/09/06 02:55:13;;;;;;;6.27;3.63;;;18.80;99.90;;;;;;5041830;28;20448;-86
2023/09/06 02:57:40;;;;;;;4.50;3.30;;;18.80;99.90;;;;;;5053904;28;20434;-86
2023/09/06 03:00:18;;;;;;;10.80;4.07;;;18.70;99.90;;;;;;5028506;28;20977;-87
2023/09/06 03:02:45;;;;;;;7.70;4.00;;;18.70;99.90;;;;;;5043792;28;20433;-86
2023/09/06 03:05:16;;;;;;;6.03;3.70;;;18.80;20.00;;;;;;5029786;28;20528;-86
2023/09/06 03:07:42;;;;;;;4.00;3.43;;;18.70;1.00;;;;;;5030220;28;20440;-85
2023/09/06 03:10:09;;;;;;;6.33;4.20;;;18.70;1.00;;;;;;5029360;28;20457;-85
2023/09/06 03:12:35;;;;;;;7.93;3.80;;;18.60;1.00;;;;;;5042458;28;20542;-86
2023/09/06 03:15:00;;;;;;;7.50;4.00;;;18.60;1.00;;;;;;5028913;28;20491;-86
2023/09/06 03:17:26;;;;;;;9.80;3.83;;;18.60;1.00;;;;;;5028868;28;20705;-86
2023/09/06 03:19:53;;;;;;;5.90;3.63;;;18.60;1.00;;;;;;5029613;28;20214;-86
2023/09/06 03:22:23;;;;;;;4.63;3.73;;;18.50;23.10;;;;;;5029033;28;20187;-84
2023/09/06 03:24:55;;;;;;;5.77;3.97;;;18.40;99.90;;;;;;5028860;28;20476;-86
2023/09/06 03:27:21;;;;;;;5.60;3.70;;;18.40;99.90;;;;;;5029622;28;20497;-84
2023/09/06 03:29:50;;;;;;;4.23;3.83;;;18.40;1.00;;;;;;5041820;28;20460;-85
2023/09/06 03:32:17;;;;;;;4.10;3.70;;;18.40;1.00;;;;;;5031807;28;20507;-86
2023/09/06 03:34:45;;;;;;;4.50;4.00;;;18.40;1.00;;;;;;5045970;28;20559;-86
2023/09/06 03:37:11;;;;;;;5.17;4.10;;;18.40;1.00;;;;;;5030512;28;20455;-85
2023/09/06 03:39:41;;;;;;;8.10;4.00;;;18.40;1.00;;;;;;5030136;28;20476;-86
2023/09/06 03:42:08;;;;;;;6.93;4.50;;;18.40;1.00;;;;;;5031603;28;20490;-85
2023/09/06 03:44:35;;;;;;;5.50;4.13;;;18.30;99.90;;;;;;5028755;28;20867;-86
2023/09/06 03:47:04;;;;;;;4.87;4.30;;;18.30;99.90;;;;;;5028892;28;21066;-86
2023/09/06 03:49:29;;;;;;;5.30;3.57;;;18.30;1.00;;;;;;5029969;28;20524;-86
2023/09/06 03:51:55;;;;;;;4.47;4.00;;;18.30;99.90;;;;;;5043538;28;20522;-86
2023/09/06 03:54:20;;;;;;;5.47;3.80;;;18.30;1.00;;;;;;5028734;28;20229;-84
2023/09/06 03:56:46;;;;;;;5.17;3.70;;;18.30;1.00;;;;;;5030021;28;20191;-85
2023/09/06 03:59:11;;;;;;;4.13;3.67;;;18.20;1.00;;;;;;5033793;28;20202;-85
2023/09/06 04:01:37;;;;;;;5.80;3.70;;;18.10;1.00;;;;;;5033709;28;20186;-85
2023/09/06 04:04:04;;;;;;;6.33;3.70;;;18.10;99.90;;;;;;5029008;28;20230;-86
2023/09/06 04:06:30;;;;;;;5.03;4.10;;;18.10;90.50;;;;;;5032302;28;20717;-86
2023/09/06 04:08:55;;;;;;;6.63;4.63;;;18.10;99.90;;;;;;5032602;28;20458;-86
2023/09/06 04:11:21;;;;;;;5.77;4.10;;;18.10;1.00;;;;;;5033847;28;20182;-85
2023/09/06 04:13:46;;;;;;;6.13;4.30;;;18.10;1.00;;;;;;5048734;28;20190;-86
2023/09/06 04:16:13;;;;;;;7.07;4.90;;;18.10;1.00;;;;;;5033901;28;20241;-85
2023/09/06 04:18:38;;;;;;;9.10;4.30;;;18.10;1.00;;;;;;5032854;28;20543;-86
2023/09/06 04:21:08;;;;;;;6.23;4.50;;;17.90;1.00;;;;;;5030105;28;20441;-86
2023/09/06 04:23:36;;;;;;;7.73;4.67;;;17.90;99.90;;;;;;5031133;28;20587;-86
2023/09/06 04:26:03;;;;;;;6.17;4.80;;;17.80;1.00;;;;;;5032236;28;20476;-84
2023/09/06 04:28:28;;;;;;;10.33;5.07;;;17.80;99.90;;;;;;5031124;28;20851;-86
2023/09/06 04:30:54;;;;;;;5.50;4.33;;;17.90;1.00;;;;;;5032703;28;20445;-84
2023/09/06 04:33:19;;;;;;;7.67;4.63;;;17.80;1.00;;;;;;5032753;28;20313;-86
2023/09/06 04:35:47;;;;;;;7.17;5.73;;;17.90;1.00;;;;;;5029959;28;22121;-84
2023/09/06 04:38:15;;;;;;;6.63;4.77;;;17.80;58.10;;;;;;5047171;28;20193;-86
2023/09/06 04:40:43;;;;;;;8.20;5.23;;;17.80;99.90;;;;;;5031363;28;20516;-85
2023/09/06 04:43:09;;;;;;;9.37;5.93;;;17.80;99.90;;;;;;5031789;28;20439;-83
2023/09/06 04:45:37;;;;;;;14.03;5.97;;;17.80;99.90;;;;;;5031319;28;20429;-85
2023/09/06 04:48:10;;;;;;;8.57;6.00;;;17.80;99.90;;;;;;5031098;28;20436;-86
2023/09/06 04:50:41;;;;;;;8.30;5.60;;;17.80;99.90;;;;;;5032287;28;20464;-86
2023/09/06 04:53:07;;;;;;;9.23;5.90;;;17.80;99.90;;;;;;5029426;28;20809;-86
2023/09/06 04:55:35;;;;;;;9.13;6.00;;;17.80;99.90;;;;;;5031776;28;20429;-86
2023/09/06 04:58:01;;;;;;;8.03;5.70;;;17.70;99.90;;;;;;5032093;28;20436;-86
2023/09/06 05:00:33;;;;;;;7.33;5.90;;;17.70;99.90;;;;;;5031719;28;20490;-85
2023/09/06 05:02:59;;;;;;;6.97;6.27;;;17.70;1.00;;;;;;5031764;28;20434;-86
2023/09/06 05:05:25;;;;;;;6.60;5.70;;;17.70;1.00;;;;;;5033383;28;20812;-83
2023/09/06 05:07:50;;;;;;;6.40;5.80;;;17.60;1.00;;;;;;5034992;28;20440;-85
2023/09/06 05:10:16;;;;;;;10.17;7.00;;;17.60;99.90;;;;;;5035460;28;20481;-86
2023/09/06 05:12:42;;;;;;;6.97;5.40;;;17.70;99.90;;;;;;5032868;28;20187;-85
2023/09/06 05:15:08;;;;;;;9.50;5.70;;;17.70;99.90;;;;;;5030342;28;20508;-86
2023/09/06 05:17:34;;;;;;;8.10;5.50;;;17.80;98.20;;;;;;5030767;28;20829;-86
2023/09/06 05:20:26;;;;;;;8.70;6.57;;;17.90;1.00;;;;;;5047865;28;20461;-85
2023/09/06 05:22:52;;;;;;;9.77;6.60;;;17.90;99.90;;;;;;5032793;28;20437;-86
2023/09/06 05:25:17;;;;;;;8.53;5.37;;;18.00;1.00;;;;;;5034430;28;21098;-86
2023/09/06 05:27:43;;;;;;;5.77;5.17;;;17.90;1.00;;;;;;5033176;28;20613;-85
2023/09/06 05:30:09;;;;;;;7.03;5.40;;;17.90;1.00;;;;;;5034284;28;20601;-86
2023/09/06 05:32:34;;;;;;;9.17;7.17;;;17.90;99.90;;;;;;5031707;28;20549;-86
2023/09/06 05:35:00;;;;;;;8.90;5.10;;;17.90;99.90;;;;;;5031885;28;20217;-86
2023/09/06 05:37:25;;;;;;;7.23;5.83;;;18.00;99.90;;;;;;5058438;28;20266;-85
2023/09/06 05:39:51;;;;;;;10.60;5.97;;;18.00;95.70;;;;;;5031657;28;20591;-85
2023/09/06 05:42:17;;;;;;;11.53;5.50;;;18.00;48.90;;;;;;5032309;28;20201;-86
2023/09/06 05:44:43;;;;;;;8.60;5.90;;;18.10;1.00;;;;;;5029249;28;20214;-85
2023/09/06 05:47:09;;;;;;;14.53;5.63;;;19.80;1.00;;;;;;5049331;28;20434;-86
2023/09/06 05:49:35;;;;;;;8.20;4.87;;;23.80;99.90;;;;;;5030672;28;20211;-87
2023/09/06 05:52:02;;;;;;;9.57;4.50;;;27.10;1.00;;;;;;5030012;28;20514;-86
2023/09/06 05:54:27;;;;;;;7.67;4.10;;;29.90;1.00;;;;;;5030672;28;20857;-85
2023/09/06 05:56:53;;;;;;;5.00;3.73;;;32.20;1.00;;;;;;5029521;28;20460;-88
2023/09/06 05:59:19;;;;;;;5.60;3.80;;;33.80;99.90;;;;;;5028064;28;20569;-88
2023/09/06 06:01:45;;;;;;;3.93;3.53;;;35.30;99.90;;;;;;5023157;28;20262;-89
2023/09/06 06:04:11;;;;;;;4.73;3.47;;;36.00;99.90;;;;;;5034145;28;20254;-85
2023/09/06 06:06:37;;;;;;;6.57;3.77;;;38.00;99.90;;;;;;5031930;28;20441;-86
2023/09/06 06:09:11;;;;;;;4.40;3.97;;;39.10;99.90;;;;;;5031160;28;20981;-85
2023/09/06 06:11:37;;;;;;;3.40;2.73;;;39.30;99.90;;;;;;5046636;28;20448;-87
2023/09/06 06:14:03;;;;;;;8.13;3.43;;;40.70;99.90;;;;;;5036285;28;20910;-85
2023/09/06 06:16:32;;;;;;;4.40;3.10;;;41.50;99.90;;;;;;5030962;28;20441;-84
2023/09/06 06:18:57;;;;;;;6.03;3.37;;;42.30;99.90;;;;;;5029754;28;20555;-86
2023/09/06 06:21:24;;;;;;;5.80;3.43;;;43.00;99.90;;;;;;5030359;28;20555;-86
2023/09/06 06:23:50;;;;;;;5.83;3.03;;;44.40;99.90;;;;;;5045131;28;20651;-86
2023/09/06 06:26:19;;;;;;;5.80;3.30;;;45.70;99.90;;;;;;5029813;28;20596;-86
2023/09/06 06:28:45;;;;;;;4.10;3.10;;;46.00;99.90;;;;;;5032277;28;20221;-86
2023/09/06 06:31:11;;;;;;;7.50;3.13;;;46.40;99.90;;;;;;5029554;28;20830;-86
2023/09/06 06:33:38;;;;;;;6.17;3.50;;;46.90;1.00;;;;;;5028208;28;20216;-86
2023/09/06 06:36:04;;;;;;;5.00;3.40;;;47.20;1.00;;;;;;5049127;28;20484;-86
2023/09/06 06:38:30;;;;;;;6.90;3.50;;;48.80;99.90;;;;;;5028477;28;20189;-85
2023/09/06 06:40:56;;;;;;;4.30;3.50;;;48.30;1.00;;;;;;5032689;28;20468;-86
2023/09/06 06:43:21;;;;;;;5.30;4.10;;;49.70;1.00;;;;;;5030552;28;20665;-86
2023/09/06 06:45:52;;;;;;;5.50;3.77;;;50.10;1.00;;;;;;5027843;28;20190;-87
2023/09/06 06:48:17;;;;;;;4.63;3.17;;;50.20;99.90;;;;;;5030906;28;20196;-87
2023/09/06 06:50:43;;;;;;;4.50;3.60;;;50.50;99.90;;;;;;5027482;28;20611;-86
2023/09/06 06:53:08;;;;;;;3.00;2.50;;;50.00;99.90;;;;;;5022590;28;20174;-87
2023/09/06 06:55:34;;;;;;;4.97;2.72;;;49.50;99.90;;;;;;5030395;28;20257;-87
2023/09/06 06:57:59;;;;;;;4.20;2.42;;;50.90;99.90;;;;;;5029056;28;20190;-86
2023/09/06 07:00:25;;;;;;;6.43;3.03;;;52.00;99.90;;;;;;5030833;28;20277;-87
2023/09/06 07:02:51;;;;;;;8.68;3.00;;;51.20;1.00;;;;;;5033250;28;20232;-87
2023/09/06 07:05:16;;;;;;;4.70;3.20;;;50.20;99.90;;;;;;5030227;28;20265;-86
2023/09/06 07:07:42;;;;;;;9.37;3.50;;;50.00;99.90;;;;;;5030782;28;20181;-87
2023/09/06 07:10:08;;;;;;;10.13;3.40;;;49.70;99.90;;;;;;5027413;28;20202;-87
2023/09/06 07:12:35;;;;;;;4.47;2.63;;;50.30;99.90;;;;;;5027191;28;20640;-86
2023/09/06 07:15:02;;;;;;;5.35;3.10;;;50.60;99.90;;;;;;5029744;28;20581;-87
2023/09/06 07:17:27;;;;;;;5.40;2.78;;;50.90;99.90;;;;;;5057096;28;20174;-87
2023/09/06 07:19:54;;;;;;;6.28;3.47;;;50.90;99.90;;;;;;5029874;28;20198;-88
2023/09/06 07:22:19;;;;;;;5.55;2.60;;;50.20;99.90;;;;;;5031259;28;20336;-87
2023/09/06 07:24:45;;;;;;;3.67;3.00;;;49.00;99.90;;;;;;5040346;28;20709;-88
2023/09/06 07:27:11;;;;;;;4.53;2.88;;;50.30;99.90;;;;;;5029613;28;20178;-86
2023/09/06 07:29:36;;;;;;;4.15;3.05;;;51.20;99.90;;;;;;5026322;28;20663;-87
2023/09/06 07:32:03;;;;;;;6.13;3.80;;;50.50;99.90;;;;;;5044639;28;20198;-86
2023/09/06 07:34:30;;;;;;;3.67;3.37;;;50.80;99.90;;;;;;5032590;28;20577;-86
2023/09/06 07:36:55;;;;;;;3.97;3.50;;;50.10;99.90;;;;;;5033149;28;20587;-87
2023/09/06 07:39:21;;;;;;;5.10;4.17;;;49.90;99.90;;;;;;5033284;28;20202;-87
2023/09/06 07:41:48;;;;;;;5.40;3.83;;;50.00;99.90;;;;;;5036802;28;20197;-87
2023/09/06 07:44:14;;;;;;;7.37;4.20;;;48.50;99.90;;;;;;5040283;28;20649;-86
2023/09/06 07:46:41;;;;;;;5.13;3.30;;;48.70;99.90;;;;;;5037137;28;20269;-85
2023/09/06 07:49:06;;;;;;;14.33;5.20;;;50.10;99.90;;;;;;5034375;28;20209;-87
2023/09/06 07:51:32;;;;;;;6.63;3.80;;;49.10;99.90;;;;;;5033310;28;20189;-86
2023/09/06 07:53:57;;;;;;;8.93;4.30;;;49.60;99.90;;;;;;5035359;28;20778;-86
2023/09/06 07:56:23;;;;;;;6.03;3.70;;;49.70;99.90;;;;;;5034516;28;20182;-87
2023/09/06 07:58:48;;;;;;;10.55;4.18;;;50.90;99.90;;;;;;5034046;28;20663;-84
2023/09/06 08:01:14;;;;;;;8.43;3.40;;;50.10;99.90;;;;;;5033814;28;20182;-86
2023/09/06 08:03:39;;;;;;;12.93;3.70;;;50.20;99.90;;;;;;5034698;28;20618;-86
2023/09/06 08:06:05;;;;;;;6.80;3.70;;;50.00;99.90;;;;;;5031933;28;20272;-86
2023/09/06 08:08:31;;;;;;;7.17;4.03;;;50.80;99.90;;;;;;5019926;28;20239;-85
2023/09/06 08:10:57;;;;;;;8.32;4.15;;;51.10;99.90;;;;;;5031230;28;20186;-85
2023/09/06 08:13:23;;;;;;;12.63;4.40;;;50.50;99.90;;;;;;5030928;28;20209;-86
2023/09/06 08:15:48;;;;;;;5.97;3.37;;;51.50;99.90;;;;;;5033441;28;20182;-87
2023/09/06 08:18:14;;;;;;;10.70;4.27;;;52.40;99.90;;;;;;5024634;28;20182;-86
2023/09/06 08:20:39;;;;;;;7.43;3.80;;;52.90;99.90;;;;;;5024627;28;20197;-86
2023/09/06 08:23:05;;;;;;;5.30;3.90;;;52.00;99.90;;;;;;5040882;28;20178;-83
2023/09/06 08:25:33;;;;;;;8.03;4.37;;;52.10;99.90;;;;;;5046530;28;20664;-85
2023/09/06 08:27:59;;;;;;;14.53;5.27;;;52.70;99.90;;;;;;5044513;28;20182;-85
2023/09/06 08:30:24;;;;;;;14.53;5.43;;;52.20;99.90;;;;;;5044072;28;20666;-86
2023/09/06 08:32:51;;;;;;;13.70;4.87;;;51.00;99.90;;;;;;5021971;28;20186;-84
2023/09/06 08:35:20;;;;;;;9.73;4.73;;;51.80;99.90;;;;;;5026179;28;20917;-83
2023/09/06 08:37:48;;;;;;;8.83;4.70;;;51.00;99.90;;;;;;5027844;28;20235;-84
2023/09/06 08:40:15;;;;;;;10.77;4.57;;;51.30;99.90;;;;;;5045454;28;20675;-85
2023/09/06 08:42:43;;;;;;;12.37;5.10;;;50.90;99.90;;;;;;5026977;28;20964;-86
2023/09/06 08:45:09;;;;;;;15.23;5.50;;;49.80;99.90;;;;;;5029877;28;20440;-86
2023/09/06 08:47:39;;;;;;;7.80;4.90;;;49.30;99.90;;;;;;5024660;28;20444;-84
2023/09/06 08:50:10;;;;;;;14.63;5.13;;;50.50;99.90;;;;;;5031760;28;20238;-84
2023/09/06 08:52:39;;;;;;;8.57;4.40;;;49.50;99.90;;;;;;5041709;28;20446;-85
2023/09/06 08:55:05;;;;;;;6.60;4.00;;;49.80;99.90;;;;;;5030380;28;20468;-83
2023/09/06 08:57:31;;;;;;;7.47;3.90;;;49.50;99.90;;;;;;5028412;28;20443;-84
2023/09/06 08:59:58;;;;;;;6.80;3.97;;;48.70;99.90;;;;;;5020795;28;20453;-83
2023/09/06 09:02:23;;;;;;;4.60;3.30;;;47.30;99.90;;;;;;5046921;28;20437;-83
2023/09/06 09:04:49;;;;;;;6.97;4.23;;;47.90;99.90;;;;;;5029174;28;20437;-84
2023/09/06 09:07:18;;;;;;;5.33;3.87;;;47.10;99.90;;;;;;5030153;28;20190;-83
2023/09/06 09:10:07;;;;;;;5.10;3.20;;;46.60;99.90;;;;;;5030614;28;20289;-84
2023/09/06 09:12:34;;;;;;;4.90;3.30;;;47.00;99.90;;;;;;5018651;28;20988;-84
2023/09/06 09:15:03;;;;;;;10.60;5.27;;;47.20;99.90;;;;;;5024834;28;20530;-83
2023/09/06 09:17:30;;;;;;;6.50;3.63;;;45.80;99.90;;;;;;5032170;28;20533;-83
2023/09/06 09:19:59;;;;;;;5.80;3.30;;;47.00;99.90;;;;;;5027038;28;20514;-83
2023/09/06 09:22:30;;;;;;;3.53;2.80;;;46.10;99.90;;;;;;5045967;28;20511;-84
2023/09/06 09:25:02;;;;;;;9.13;2.80;;;47.30;99.90;;;;;;5030966;28;20891;-84
2023/09/06 09:27:28;;;;;;;8.90;3.00;;;46.90;99.90;;;;;;5045311;28;21011;-84
2023/09/06 09:29:59;;;;;;;3.77;3.10;;;46.90;99.90;;;;;;5029822;28;20834;-83
2023/09/06 09:32:25;;;;;;;6.20;3.17;;;46.10;99.90;;;;;;5027170;28;21123;-83
2023/09/06 09:34:52;;;;;;;5.03;2.80;;;46.50;99.90;;;;;;5029475;28;20477;-83
2023/09/06 09:37:19;;;;;;;5.63;2.87;;;45.30;99.90;;;;;;5045152;28;20685;-85
2023/09/06 09:39:44;;;;;;;3.90;3.00;;;46.10;99.90;;;;;;5030093;28;20449;-85
2023/09/06 09:42:10;;;;;;;8.73;3.17;;;46.00;99.90;;;;;;5027157;28;20443;-84
2023/09/06 09:44:36;;;;;;;3.97;3.07;;;46.50;99.90;;;;;;5044516;28;20217;-85
2023/09/06 09:47:13;;;;;;;6.90;3.30;;;46.30;99.90;;;;;;5021013;28;20464;-84
2023/09/06 09:49:42;;;;;;;4.27;2.67;;;45.70;99.90;;;;;;5027803;28;20205;-85
2023/09/06 09:52:14;;;;;;;5.93;2.93;;;45.70;99.90;;;;;;5026325;28;20429;-84
2023/09/06 09:54:42;;;;;;;4.03;2.70;;;45.40;99.90;;;;;;5022303;28;20468;-83
2023/09/06 09:57:08;;;;;;;7.10;3.07;;;45.10;99.90;;;;;;5022158;28;20429;-84
2023/09/06 09:59:36;;;;;;;4.13;2.73;;;45.00;99.90;;;;;;5030285;28;20961;-83
2023/09/06 10:02:04;;;;;;;5.77;2.67;;;45.00;99.90;;;;;;5024258;28;20559;-84
2023/09/06 10:04:31;;;;;;;7.27;3.30;;;45.10;99.90;;;;;;5039702;28;20465;-84
2023/09/06 10:06:58;;;;;;;8.30;2.47;;;44.80;99.90;;;;;;5028613;28;20441;-84
2023/09/06 10:09:25;;;;;;;6.43;3.33;;;46.00;99.90;;;;;;5028113;28;20922;-84
2023/09/06 10:11:51;;;;;;;9.70;3.10;;;46.70;99.90;;;;;;5046110;28;20980;-84
2023/09/06 10:14:19;;;;;;;3.10;2.67;;;45.90;99.90;;;;;;5023366;28;20559;-82
2023/09/06 10:16:46;;;;;;;6.13;2.60;;;46.10;99.90;;;;;;5014153;28;20426;-84
2023/09/06 10:19:12;;;;;;;5.47;3.37;;;46.20;99.90;;;;;;5010404;28;20477;-85
2023/09/06 10:21:39;;;;;;;3.07;2.67;;;46.20;99.90;;;;;;5012314;28;20414;-85
2023/09/06 10:24:15;;;;;;;4.93;2.50;;;45.40;99.90;;;;;;5042797;28;20201;-84
2023/09/06 10:26:43;;;;;;;5.13;3.00;;;45.90;99.90;;;;;;5022611;28;20469;-83
2023/09/06 10:29:11;;;;;;;4.30;2.70;;;45.00;99.90;;;;;;5029548;28;20460;-85
2023/09/06 10:31:53;;;;;;;5.57;2.87;;;45.10;99.90;;;;;;5024534;28;20422;-84
2023/09/06 10:34:19;;;;;;;5.73;2.47;;;45.10;99.90;;;;;;5010770;28;20567;-85
2023/09/06 10:36:56;;;;;;;7.63;2.83;;;44.30;99.90;;;;;;5019953;28;20417;-84
2023/09/06 10:39:25;;;;;;;9.30;2.80;;;43.80;99.90;;;;;;5025307;28;20499;-84
2023/09/06 10:42:09;;;;;;;4.30;2.50;;;44.20;99.90;;;;;;5022227;28;20439;-85
2023/09/06 10:44:53;;;;;;;4.40;2.90;;;44.50;99.90;;;;;;5020319;28;20615;-84
2023/09/06 10:47:24;;;;;;;4.13;3.13;;;44.10;99.90;;;;;;5027130;28;20417;-84
2023/09/06 10:50:10;;;;;;;3.57;2.70;;;43.80;99.90;;;;;;5012050;28;20439;-85
2023/09/06 10:52:44;;;;;;;13.73;3.00;;;44.30;99.90;;;;;;5031211;28;20429;-85
2023/09/06 10:55:21;;;;;;;4.10;2.60;;;43.60;99.90;;;;;;5036722;28;21282;-84
2023/09/06 10:58:02;;;;;;;5.63;3.10;;;43.80;99.90;;;;;;5028277;28;20901;-84
2023/09/06 11:00:34;;;;;;;2.67;2.47;;;43.50;99.90;;;;;;5020706;28;20443;-83
2023/09/06 11:03:13;;;;;;;3.20;2.50;;;43.90;99.90;;;;;;5025274;28;20444;-82
2023/09/06 11:05:44;;;;;;;2.97;2.73;;;44.00;99.90;;;;;;5022281;28;20438;-84
2023/09/06 11:08:22;;;;;;;3.50;3.20;;;44.30;99.90;;;;;;5024283;28;20461;-84
2023/09/06 11:10:47;;;;;;;3.93;2.67;;;44.10;99.90;;;;;;5049539;28;20456;-84
2023/09/06 11:13:15;;;;;;;3.67;3.37;;;43.70;99.90;;;;;;5016175;28;20421;-85
2023/09/06 11:15:41;;;;;;;5.57;3.00;;;43.90;99.90;;;;;;5053349;28;20179;-84
2023/09/06 11:18:08;;;;;;;8.77;2.80;;;43.70;99.90;;;;;;5020203;28;20448;-85
2023/09/06 11:20:35;;;;;;;4.67;2.90;;;43.70;99.90;;;;;;5025738;28;20487;-84
2023/09/06 11:23:02;;;;;;;4.87;3.10;;;43.70;99.90;;;;;;5033061;28;20424;-82
2023/09/06 11:25:29;;;;;;;3.73;2.80;;;43.60;99.90;;;;;;5031105;28;20926;-84
2023/09/06 11:27:59;;;;;;;3.70;2.63;;;43.80;99.90;;;;;;5037139;28;20448;-84
2023/09/06 11:30:26;;;;;;;3.00;2.70;;;43.50;99.90;;;;;;5034389;28;20449;-84
2023/09/06 11:32:56;;;;;;;4.13;2.80;;;43.60;99.90;;;;;;5025792;28;20472;-85
2023/09/06 11:35:27;;;;;;;4.53;3.10;;;43.60;99.90;;;;;;5032937;28;20562;-85
2023/09/06 11:37:55;;;;;;;5.67;3.20;;;42.40;99.90;;;;;;5033953;28;20417;-84
2023/09/06 11:40:22;;;;;;;5.50;3.07;;;41.80;99.90;;;;;;5024978;28;20461;-84
2023/09/06 11:42:52;;;;;;;4.87;3.17;;;42.40;99.90;;;;;;5034154;28;20421;-84
2023/09/06 11:45:20;;;;;;;3.77;3.00;;;42.10;99.90;;;;;;5021602;28;20418;-84
2023/09/06 11:47:51;;;;;;;3.40;2.63;;;42.00;99.90;;;;;;5032532;28;20438;-83
2023/09/06 11:50:19;;;;;;;5.53;2.83;;;42.40;99.90;;;;;;5027887;28;20488;-84
2023/09/06 11:52:47;;;;;;;3.73;3.30;;;42.30;99.90;;;;;;5026135;28;20502;-84
2023/09/06 11:55:16;;;;;;;3.40;2.80;;;42.20;99.90;;;;;;5026273;28;20462;-84
2023/09/06 11:57:50;;;;;;;3.83;2.57;;;41.50;99.90;;;;;;5023674;28;20457;-84
2023/09/06 12:00:28;;;;;;;6.10;3.00;;;41.50;99.90;;;;;;5024679;28;20479;-84
2023/09/06 12:03:01;;;;;;;4.60;3.07;;;41.80;99.90;;;;;;5031892;28;20934;-84
2023/09/06 12:05:27;;;;;;;3.50;3.07;;;41.90;99.90;;;;;;5024670;28;20922;-84
2023/09/06 12:07:55;;;;;;;4.63;2.80;;;42.70;99.90;;;;;;5029581;28;20466;-83
2023/09/06 12:10:22;;;;;;;4.67;2.90;;;42.70;99.90;;;;;;5037643;28;20488;-84
2023/09/06 12:12:49;;;;;;;3.20;2.50;;;42.20;99.90;;;;;;5029397;28;20424;-84
2023/09/06 12:15:19;;;;;;;3.67;3.20;;;42.00;99.90;;;;;;5034504;28;20976;-83
2023/09/06 12:17:49;;;;;;;5.33;3.03;;;41.70;99.90;;;;;;5013152;28;20411;-83
2023/09/06 12:20:18;;;;;;;3.13;2.83;;;41.00;99.90;;;;;;5042699;28;20464;-83
2023/09/06 12:22:44;;;;;;;4.53;2.93;;;40.80;99.90;;;;;;5020890;28;20429;-83
2023/09/06 12:25:13;;;;;;;5.13;2.80;;;40.70;99.90;;;;;;5021756;28;20499;-85
2023/09/06 12:27:39;;;;;;;4.80;2.63;;;40.30;99.90;;;;;;5018517;28;20427;-83
2023/09/06 12:30:05;;;;;;;3.50;3.20;;;39.20;99.90;;;;;;5032679;28;20510;-84
2023/09/06 12:32:31;;;;;;;6.70;3.43;;;38.90;99.90;;;;;;5034152;28;20178;-84
2023/09/06 12:34:57;;;;;;;4.70;3.80;;;38.70;99.90;;;;;;5032343;28;20469;-84
2023/09/06 12:37:24;;;;;;;8.47;3.47;;;39.00;99.90;;;;;;5026813;28;20556;-85
2023/09/06 12:39:50;;;;;;;5.67;3.17;;;39.00;99.90;;;;;;5025285;28;20293;-84
2023/09/06 12:42:16;;;;;;;5.13;2.80;;;39.30;99.90;;;;;;5021278;28;20425;-84
2023/09/06 12:44:41;;;;;;;3.77;2.63;;;39.30;99.90;;;;;;5016765;28;20246;-84
2023/09/06 12:47:07;;;;;;;3.17;2.90;;;39.40;99.90;;;;;;5019484;28;20432;-85
2023/09/06 12:49:32;;;;;;;6.33;3.30;;;39.30;99.90;;;;;;5028678;28;20644;-84